sensor_id;sensor_type;location;lat;lon;timestamp;P1;durP1;ratioP1;P2;durP2;ratioP2
61015;SDS011;46902;52.920;6.536;2022-10-26T00:02:14;14.07;;;9.20;;
61015;SDS011;46902;52.920;6.536;2022-10-26T00:04:40;15.50;;;8.35;;
61015;SDS011;46902;52.920;6.536;2022-10-26T00:07:05;13.43;;;8.68;;
61015;SDS011;46902;52.920;6.536;2022-10-26T00:09:31;14.65;;;8.70;;
61015;SDS011;46902;52.920;6.536;2022-10-26T00:11:56;14.52;;;8.48;;
61015;SDS011;46902;52.920;6.536;2022-10-26T00:14:22;16.08;;;9.02;;
61015;SDS011;46902;52.920;6.536;2022-10-26T00:16:48;12.85;;;8.35;;
61015;SDS011;46902;52.920;6.536;2022-10-26T00:19:13;14.38;;;9.00;;
61015;SDS011;46902;52.920;6.536;2022-10-26T00:21:39;14.38;;;8.82;;
61015;SDS011;46902;52.920;6.536;2022-10-26T00:24:04;13.27;;;8.65;;
61015;SDS011;46902;52.920;6.536;2022-10-26T00:26:30;16.75;;;8.73;;
61015;SDS011;46902;52.920;6.536;2022-10-26T00:28:56;14.68;;;8.82;;
61015;SDS011;46902;52.920;6.536;2022-10-26T00:31:22;14.95;;;8.60;;
61015;SDS011;46902;52.920;6.536;2022-10-26T00:33:51;13.43;;;8.73;;
61015;SDS011;46902;52.920;6.536;2022-10-26T00:36:18;13.95;;;9.50;;
61015;SDS011;46902;52.920;6.536;2022-10-26T00:38:48;14.85;;;8.55;;
61015;SDS011;46902;52.920;6.536;2022-10-26T00:41:18;18.70;;;8.27;;
61015;SDS011;46902;52.920;6.536;2022-10-26T00:43:45;16.33;;;9.27;;
61015;SDS011;46902;52.920;6.536;2022-10-26T00:46:22;14.18;;;8.23;;
61015;SDS011;46902;52.920;6.536;2022-10-26T00:48:57;14.70;;;8.82;;
61015;SDS011;46902;52.920;6.536;2022-10-26T00:51:54;13.40;;;8.27;;
61015;SDS011;46902;52.920;6.536;2022-10-26T00:54:19;14.30;;;9.60;;
61015;SDS011;46902;52.920;6.536;2022-10-26T00:56:46;16.55;;;8.65;;
61015;SDS011;46902;52.920;6.536;2022-10-26T00:59:15;16.55;;;8.77;;
61015;SDS011;46902;52.920;6.536;2022-10-26T01:01:45;13.98;;;8.77;;
61015;SDS011;46902;52.920;6.536;2022-10-26T01:04:13;16.52;;;8.88;;
61015;SDS011;46902;52.920;6.536;2022-10-26T01:06:40;15.45;;;10.05;;
61015;SDS011;46902;52.920;6.536;2022-10-26T01:09:06;14.63;;;9.02;;
61015;SDS011;46902;52.920;6.536;2022-10-26T01:11:33;13.07;;;9.50;;
61015;SDS011;46902;52.920;6.536;2022-10-26T01:13:59;13.02;;;9.07;;
61015;SDS011;46902;52.920;6.536;2022-10-26T01:16:37;13.95;;;9.15;;
61015;SDS011;46902;52.920;6.536;2022-10-26T01:21:55;12.98;;;9.30;;
61015;SDS011;46902;52.920;6.536;2022-10-26T01:24:36;13.02;;;9.30;;
61015;SDS011;46902;52.920;6.536;2022-10-26T01:30:11;15.45;;;10.02;;
61015;SDS011;46902;52.920;6.536;2022-10-26T01:41:24;14.75;;;10.70;;
61015;SDS011;46902;52.920;6.536;2022-10-26T01:44:02;11.95;;;10.35;;
61015;SDS011;46902;52.920;6.536;2022-10-26T01:46:33;20.30;;;11.25;;
61015;SDS011;46902;52.920;6.536;2022-10-26T01:49:02;15.32;;;10.80;;
61015;SDS011;46902;52.920;6.536;2022-10-26T01:51:32;15.18;;;10.02;;
61015;SDS011;46902;52.920;6.536;2022-10-26T01:53:58;17.60;;;10.55;;
61015;SDS011;46902;52.920;6.536;2022-10-26T01:56:24;16.83;;;11.02;;
61015;SDS011;46902;52.920;6.536;2022-10-26T01:58:59;14.10;;;10.75;;
61015;SDS011;46902;52.920;6.536;2022-10-26T02:09:19;14.48;;;10.05;;
61015;SDS011;46902;52.920;6.536;2022-10-26T02:11:53;19.10;;;10.75;;
61015;SDS011;46902;52.920;6.536;2022-10-26T02:16:53;15.43;;;11.65;;
61015;SDS011;46902;52.920;6.536;2022-10-26T02:19:32;15.80;;;11.88;;
61015;SDS011;46902;52.920;6.536;2022-10-26T02:22:18;17.63;;;11.15;;
61015;SDS011;46902;52.920;6.536;2022-10-26T02:24:49;13.50;;;10.52;;
61015;SDS011;46902;52.920;6.536;2022-10-26T02:27:19;22.38;;;12.88;;
61015;SDS011;46902;52.920;6.536;2022-10-26T02:29:48;15.68;;;11.98;;
61015;SDS011;46902;52.920;6.536;2022-10-26T02:32:16;18.25;;;11.52;;
61015;SDS011;46902;52.920;6.536;2022-10-26T02:34:43;14.70;;;12.05;;
61015;SDS011;46902;52.920;6.536;2022-10-26T02:37:12;21.58;;;12.20;;
61015;SDS011;46902;52.920;6.536;2022-10-26T02:39:43;16.83;;;11.63;;
61015;SDS011;46902;52.920;6.536;2022-10-26T02:42:10;17.35;;;12.00;;
61015;SDS011;46902;52.920;6.536;2022-10-26T02:44:43;18.10;;;11.88;;
61015;SDS011;46902;52.920;6.536;2022-10-26T02:47:14;20.33;;;12.23;;
61015;SDS011;46902;52.920;6.536;2022-10-26T02:49:40;18.35;;;12.00;;
61015;SDS011;46902;52.920;6.536;2022-10-26T02:52:11;20.58;;;12.13;;
61015;SDS011;46902;52.920;6.536;2022-10-26T02:54:51;17.85;;;12.00;;
61015;SDS011;46902;52.920;6.536;2022-10-26T02:57:36;15.25;;;11.15;;
61015;SDS011;46902;52.920;6.536;2022-10-26T03:00:05;17.33;;;11.60;;
61015;SDS011;46902;52.920;6.536;2022-10-26T03:02:35;20.42;;;11.98;;
61015;SDS011;46902;52.920;6.536;2022-10-26T03:05:20;21.15;;;12.02;;
61015;SDS011;46902;52.920;6.536;2022-10-26T03:07:48;17.58;;;12.85;;
61015;SDS011;46902;52.920;6.536;2022-10-26T03:10:14;16.00;;;12.05;;
61015;SDS011;46902;52.920;6.536;2022-10-26T03:12:40;13.95;;;10.60;;
61015;SDS011;46902;52.920;6.536;2022-10-26T03:15:05;19.48;;;12.85;;
61015;SDS011;46902;52.920;6.536;2022-10-26T03:17:31;16.10;;;12.18;;
61015;SDS011;46902;52.920;6.536;2022-10-26T03:19:57;20.45;;;12.98;;
61015;SDS011;46902;52.920;6.536;2022-10-26T03:22:22;17.65;;;12.18;;
61015;SDS011;46902;52.920;6.536;2022-10-26T03:24:48;17.30;;;12.10;;
61015;SDS011;46902;52.920;6.536;2022-10-26T03:27:13;18.02;;;13.50;;
61015;SDS011;46902;52.920;6.536;2022-10-26T03:29:39;15.98;;;12.80;;
61015;SDS011;46902;52.920;6.536;2022-10-26T03:32:05;17.50;;;13.27;;
61015;SDS011;46902;52.920;6.536;2022-10-26T03:34:31;16.70;;;13.43;;
61015;SDS011;46902;52.920;6.536;2022-10-26T03:36:56;18.27;;;13.77;;
61015;SDS011;46902;52.920;6.536;2022-10-26T03:39:22;20.65;;;13.25;;
61015;SDS011;46902;52.920;6.536;2022-10-26T03:41:47;18.73;;;12.82;;
61015;SDS011;46902;52.920;6.536;2022-10-26T03:44:13;19.35;;;13.48;;
61015;SDS011;46902;52.920;6.536;2022-10-26T03:46:38;17.02;;;13.40;;
61015;SDS011;46902;52.920;6.536;2022-10-26T03:49:04;18.65;;;13.45;;
61015;SDS011;46902;52.920;6.536;2022-10-26T03:51:30;19.20;;;12.98;;
61015;SDS011;46902;52.920;6.536;2022-10-26T03:53:55;23.25;;;14.10;;
61015;SDS011;46902;52.920;6.536;2022-10-26T03:56:21;21.65;;;14.48;;
61015;SDS011;46902;52.920;6.536;2022-10-26T03:58:47;16.75;;;14.27;;
61015;SDS011;46902;52.920;6.536;2022-10-26T04:01:12;22.10;;;15.23;;
61015;SDS011;46902;52.920;6.536;2022-10-26T04:03:38;19.67;;;15.02;;
61015;SDS011;46902;52.920;6.536;2022-10-26T04:06:04;17.67;;;14.52;;
61015;SDS011;46902;52.920;6.536;2022-10-26T04:08:29;17.55;;;13.68;;
61015;SDS011;46902;52.920;6.536;2022-10-26T04:10:55;22.67;;;14.55;;
61015;SDS011;46902;52.920;6.536;2022-10-26T04:13:20;21.25;;;14.50;;
61015;SDS011;46902;52.920;6.536;2022-10-26T04:15:46;19.80;;;13.98;;
61015;SDS011;46902;52.920;6.536;2022-10-26T04:18:12;17.63;;;14.63;;
61015;SDS011;46902;52.920;6.536;2022-10-26T04:20:38;17.80;;;14.75;;
61015;SDS011;46902;52.920;6.536;2022-10-26T04:23:05;21.73;;;15.13;;
61015;SDS011;46902;52.920;6.536;2022-10-26T04:25:32;20.48;;;14.10;;
61015;SDS011;46902;52.920;6.536;2022-10-26T04:27:58;18.33;;;13.77;;
61015;SDS011;46902;52.920;6.536;2022-10-26T04:30:24;21.77;;;13.80;;
61015;SDS011;46902;52.920;6.536;2022-10-26T04:32:50;18.55;;;13.10;;
61015;SDS011;46902;52.920;6.536;2022-10-26T04:35:15;20.35;;;14.23;;
61015;SDS011;46902;52.920;6.536;2022-10-26T04:37:41;19.98;;;13.80;;
61015;SDS011;46902;52.920;6.536;2022-10-26T04:40:07;20.83;;;15.13;;
61015;SDS011;46902;52.920;6.536;2022-10-26T04:42:42;18.98;;;13.65;;
61015;SDS011;46902;52.920;6.536;2022-10-26T04:45:09;20.25;;;13.52;;
61015;SDS011;46902;52.920;6.536;2022-10-26T04:47:35;16.98;;;12.68;;
61015;SDS011;46902;52.920;6.536;2022-10-26T04:50:01;16.98;;;12.90;;
61015;SDS011;46902;52.920;6.536;2022-10-26T04:52:27;17.83;;;13.80;;
61015;SDS011;46902;52.920;6.536;2022-10-26T04:54:52;16.02;;;12.73;;
61015;SDS011;46902;52.920;6.536;2022-10-26T04:57:18;20.05;;;13.00;;
61015;SDS011;46902;52.920;6.536;2022-10-26T04:59:43;17.50;;;12.45;;
61015;SDS011;46902;52.920;6.536;2022-10-26T05:02:09;16.33;;;12.82;;
61015;SDS011;46902;52.920;6.536;2022-10-26T05:04:34;18.95;;;13.57;;
61015;SDS011;46902;52.920;6.536;2022-10-26T05:07:00;17.45;;;13.23;;
61015;SDS011;46902;52.920;6.536;2022-10-26T05:09:25;15.48;;;12.18;;
61015;SDS011;46902;52.920;6.536;2022-10-26T05:11:51;18.65;;;12.38;;
61015;SDS011;46902;52.920;6.536;2022-10-26T05:14:16;20.80;;;12.60;;
61015;SDS011;46902;52.920;6.536;2022-10-26T05:16:42;18.60;;;13.43;;
61015;SDS011;46902;52.920;6.536;2022-10-26T05:19:08;17.23;;;12.38;;
61015;SDS011;46902;52.920;6.536;2022-10-26T05:21:34;18.05;;;12.30;;
61015;SDS011;46902;52.920;6.536;2022-10-26T05:24:00;16.55;;;11.57;;
61015;SDS011;46902;52.920;6.536;2022-10-26T05:26:25;19.60;;;12.82;;
61015;SDS011;46902;52.920;6.536;2022-10-26T05:28:51;16.33;;;12.27;;
61015;SDS011;46902;52.920;6.536;2022-10-26T05:31:17;14.68;;;11.68;;
61015;SDS011;46902;52.920;6.536;2022-10-26T05:33:43;15.85;;;12.13;;
61015;SDS011;46902;52.920;6.536;2022-10-26T05:36:08;16.50;;;11.82;;
61015;SDS011;46902;52.920;6.536;2022-10-26T05:38:34;16.02;;;11.68;;
61015;SDS011;46902;52.920;6.536;2022-10-26T05:40:59;14.93;;;11.45;;
61015;SDS011;46902;52.920;6.536;2022-10-26T05:43:25;22.10;;;12.75;;
61015;SDS011;46902;52.920;6.536;2022-10-26T05:45:52;19.17;;;12.27;;
61015;SDS011;46902;52.920;6.536;2022-10-26T05:48:18;18.70;;;11.48;;
61015;SDS011;46902;52.920;6.536;2022-10-26T05:50:44;16.67;;;11.60;;
61015;SDS011;46902;52.920;6.536;2022-10-26T05:53:09;18.02;;;10.93;;
61015;SDS011;46902;52.920;6.536;2022-10-26T05:55:35;16.10;;;11.45;;
61015;SDS011;46902;52.920;6.536;2022-10-26T05:58:01;15.05;;;11.55;;
61015;SDS011;46902;52.920;6.536;2022-10-26T06:00:27;20.13;;;11.77;;
61015;SDS011;46902;52.920;6.536;2022-10-26T06:03:05;17.50;;;11.63;;
61015;SDS011;46902;52.920;6.536;2022-10-26T06:05:40;17.25;;;11.55;;
61015;SDS011;46902;52.920;6.536;2022-10-26T06:08:17;15.98;;;11.25;;
61015;SDS011;46902;52.920;6.536;2022-10-26T06:10:44;14.45;;;11.13;;
61015;SDS011;46902;52.920;6.536;2022-10-26T06:13:10;16.58;;;11.73;;
61015;SDS011;46902;52.920;6.536;2022-10-26T06:15:39;16.63;;;10.50;;
61015;SDS011;46902;52.920;6.536;2022-10-26T06:21:26;14.32;;;11.23;;
61015;SDS011;46902;52.920;6.536;2022-10-26T06:23:54;14.30;;;10.70;;
61015;SDS011;46902;52.920;6.536;2022-10-26T06:31:58;16.08;;;10.55;;
61015;SDS011;46902;52.920;6.536;2022-10-26T06:34:26;14.13;;;10.70;;
61015;SDS011;46902;52.920;6.536;2022-10-26T06:36:57;15.15;;;10.88;;
61015;SDS011;46902;52.920;6.536;2022-10-26T06:39:24;17.40;;;11.10;;
61015;SDS011;46902;52.920;6.536;2022-10-26T06:41:53;20.45;;;10.60;;
61015;SDS011;46902;52.920;6.536;2022-10-26T06:44:21;16.05;;;10.02;;
61015;SDS011;46902;52.920;6.536;2022-10-26T06:46:52;13.40;;;9.77;;
61015;SDS011;46902;52.920;6.536;2022-10-26T06:54:55;15.70;;;10.00;;
61015;SDS011;46902;52.920;6.536;2022-10-26T06:57:22;14.68;;;9.88;;
61015;SDS011;46902;52.920;6.536;2022-10-26T06:59:52;14.27;;;10.15;;
61015;SDS011;46902;52.920;6.536;2022-10-26T07:02:20;13.57;;;9.63;;
61015;SDS011;46902;52.920;6.536;2022-10-26T07:04:46;15.70;;;9.88;;
61015;SDS011;46902;52.920;6.536;2022-10-26T07:07:17;18.67;;;9.00;;
61015;SDS011;46902;52.920;6.536;2022-10-26T07:09:45;18.38;;;9.10;;
61015;SDS011;46902;52.920;6.536;2022-10-26T07:12:11;12.30;;;8.60;;
61015;SDS011;46902;52.920;6.536;2022-10-26T07:14:36;16.33;;;8.63;;
61015;SDS011;46902;52.920;6.536;2022-10-26T07:17:02;14.48;;;9.25;;
61015;SDS011;46902;52.920;6.536;2022-10-26T07:19:29;11.02;;;8.30;;
61015;SDS011;46902;52.920;6.536;2022-10-26T07:21:55;12.05;;;8.38;;
61015;SDS011;46902;52.920;6.536;2022-10-26T07:24:21;9.93;;;7.35;;
61015;SDS011;46902;52.920;6.536;2022-10-26T07:26:47;16.48;;;9.00;;
61015;SDS011;46902;52.920;6.536;2022-10-26T07:29:13;13.93;;;7.88;;
61015;SDS011;46902;52.920;6.536;2022-10-26T07:31:40;12.40;;;7.70;;
61015;SDS011;46902;52.920;6.536;2022-10-26T07:34:06;14.20;;;7.80;;
61015;SDS011;46902;52.920;6.536;2022-10-26T07:36:31;10.98;;;7.97;;
61015;SDS011;46902;52.920;6.536;2022-10-26T07:38:57;10.57;;;6.90;;
61015;SDS011;46902;52.920;6.536;2022-10-26T07:41:23;11.32;;;6.60;;
61015;SDS011;46902;52.920;6.536;2022-10-26T07:43:48;12.13;;;6.93;;
61015;SDS011;46902;52.920;6.536;2022-10-26T07:46:15;17.15;;;7.03;;
61015;SDS011;46902;52.920;6.536;2022-10-26T07:48:40;11.23;;;6.85;;
61015;SDS011;46902;52.920;6.536;2022-10-26T07:51:06;10.30;;;6.25;;
61015;SDS011;46902;52.920;6.536;2022-10-26T07:53:32;14.45;;;6.85;;
61015;SDS011;46902;52.920;6.536;2022-10-26T07:55:57;9.05;;;5.75;;
61015;SDS011;46902;52.920;6.536;2022-10-26T07:58:23;12.07;;;6.15;;
61015;SDS011;46902;52.920;6.536;2022-10-26T08:00:52;11.20;;;6.45;;
61015;SDS011;46902;52.920;6.536;2022-10-26T08:03:19;9.85;;;5.68;;
61015;SDS011;46902;52.920;6.536;2022-10-26T08:05:45;13.73;;;6.20;;
61015;SDS011;46902;52.920;6.536;2022-10-26T08:08:18;11.27;;;5.65;;
61015;SDS011;46902;52.920;6.536;2022-10-26T08:10:44;11.25;;;6.15;;
61015;SDS011;46902;52.920;6.536;2022-10-26T08:13:10;8.98;;;5.53;;
61015;SDS011;46902;52.920;6.536;2022-10-26T08:15:37;8.40;;;5.30;;
61015;SDS011;46902;52.920;6.536;2022-10-26T08:18:04;8.38;;;5.60;;
61015;SDS011;46902;52.920;6.536;2022-10-26T08:20:30;8.02;;;4.68;;
61015;SDS011;46902;52.920;6.536;2022-10-26T08:22:56;14.68;;;5.75;;
61015;SDS011;46902;52.920;6.536;2022-10-26T08:25:22;8.48;;;4.65;;
61015;SDS011;46902;52.920;6.536;2022-10-26T08:27:47;10.27;;;5.20;;
61015;SDS011;46902;52.920;6.536;2022-10-26T08:30:13;9.13;;;5.45;;
61015;SDS011;46902;52.920;6.536;2022-10-26T08:32:39;7.82;;;5.25;;
61015;SDS011;46902;52.920;6.536;2022-10-26T08:35:06;8.80;;;5.20;;
61015;SDS011;46902;52.920;6.536;2022-10-26T08:37:33;7.03;;;5.15;;
61015;SDS011;46902;52.920;6.536;2022-10-26T08:39:58;11.40;;;5.95;;
61015;SDS011;46902;52.920;6.536;2022-10-26T08:42:36;8.77;;;5.30;;
61015;SDS011;46902;52.920;6.536;2022-10-26T08:45:09;13.32;;;5.80;;
61015;SDS011;46902;52.920;6.536;2022-10-26T08:47:45;10.30;;;5.47;;
61015;SDS011;46902;52.920;6.536;2022-10-26T08:50:29;10.23;;;5.05;;
61015;SDS011;46902;52.920;6.536;2022-10-26T08:55:46;13.05;;;5.45;;
61015;SDS011;46902;52.920;6.536;2022-10-26T08:58:18;9.30;;;5.25;;
61015;SDS011;46902;52.920;6.536;2022-10-26T09:00:49;9.07;;;4.80;;
61015;SDS011;46902;52.920;6.536;2022-10-26T09:03:16;7.30;;;4.57;;
61015;SDS011;46902;52.920;6.536;2022-10-26T09:25:19;8.35;;;3.85;;
61015;SDS011;46902;52.920;6.536;2022-10-26T09:27:54;9.07;;;3.70;;
61015;SDS011;46902;52.920;6.536;2022-10-26T09:30:22;10.75;;;4.75;;
61015;SDS011;46902;52.920;6.536;2022-10-26T09:32:49;9.48;;;4.10;;
61015;SDS011;46902;52.920;6.536;2022-10-26T09:35:27;10.13;;;3.67;;
61015;SDS011;46902;52.920;6.536;2022-10-26T09:38:14;8.43;;;3.78;;
61015;SDS011;46902;52.920;6.536;2022-10-26T09:43:43;6.82;;;4.22;;
61015;SDS011;46902;52.920;6.536;2022-10-26T09:46:15;6.70;;;3.50;;
61015;SDS011;46902;52.920;6.536;2022-10-26T09:48:47;10.93;;;3.65;;
61015;SDS011;46902;52.920;6.536;2022-10-26T09:51:20;9.70;;;3.65;;
61015;SDS011;46902;52.920;6.536;2022-10-26T09:53:47;7.40;;;3.42;;
61015;SDS011;46902;52.920;6.536;2022-10-26T09:56:14;7.07;;;3.15;;
61015;SDS011;46902;52.920;6.536;2022-10-26T09:58:43;13.98;;;3.88;;
61015;SDS011;46902;52.920;6.536;2022-10-26T10:01:20;8.97;;;3.77;;
61015;SDS011;46902;52.920;6.536;2022-10-26T10:04:30;6.82;;;3.30;;
61015;SDS011;46902;52.920;6.536;2022-10-26T10:09:27;7.18;;;3.33;;
61015;SDS011;46902;52.920;6.536;2022-10-26T10:11:58;7.75;;;2.97;;
61015;SDS011;46902;52.920;6.536;2022-10-26T10:14:37;7.03;;;2.97;;
61015;SDS011;46902;52.920;6.536;2022-10-26T10:17:05;7.05;;;2.97;;
61015;SDS011;46902;52.920;6.536;2022-10-26T10:19:35;5.35;;;2.97;;
61015;SDS011;46902;52.920;6.536;2022-10-26T10:24:40;11.05;;;3.10;;
61015;SDS011;46902;52.920;6.536;2022-10-26T10:29:51;12.32;;;3.33;;
61015;SDS011;46902;52.920;6.536;2022-10-26T10:34:50;6.57;;;2.88;;
61015;SDS011;46902;52.920;6.536;2022-10-26T10:39:59;6.43;;;2.78;;
61015;SDS011;46902;52.920;6.536;2022-10-26T10:42:33;6.72;;;2.65;;
61015;SDS011;46902;52.920;6.536;2022-10-26T10:45:02;7.05;;;2.83;;
61015;SDS011;46902;52.920;6.536;2022-10-26T10:47:33;10.25;;;3.03;;
61015;SDS011;46902;52.920;6.536;2022-10-26T10:52:28;5.95;;;2.50;;
61015;SDS011;46902;52.920;6.536;2022-10-26T11:00:42;9.15;;;2.75;;
61015;SDS011;46902;52.920;6.536;2022-10-26T11:06:24;6.88;;;2.40;;
61015;SDS011;46902;52.920;6.536;2022-10-26T11:08:58;7.85;;;2.55;;
61015;SDS011;46902;52.920;6.536;2022-10-26T11:14:28;8.05;;;2.60;;
61015;SDS011;46902;52.920;6.536;2022-10-26T11:17:18;5.53;;;2.50;;
61015;SDS011;46902;52.920;6.536;2022-10-26T11:20:11;5.53;;;2.70;;
61015;SDS011;46902;52.920;6.536;2022-10-26T11:25:35;7.85;;;2.80;;
61015;SDS011;46902;52.920;6.536;2022-10-26T11:28:14;9.38;;;2.70;;
61015;SDS011;46902;52.920;6.536;2022-10-26T11:30:54;8.23;;;2.20;;
61015;SDS011;46902;52.920;6.536;2022-10-26T11:33:25;10.43;;;2.85;;
61015;SDS011;46902;52.920;6.536;2022-10-26T11:36:04;5.05;;;2.25;;
61015;SDS011;46902;52.920;6.536;2022-10-26T11:38:35;6.20;;;2.30;;
61015;SDS011;46902;52.920;6.536;2022-10-26T11:41:11;10.68;;;2.97;;
61015;SDS011;46902;52.920;6.536;2022-10-26T11:43:44;5.25;;;2.13;;
61015;SDS011;46902;52.920;6.536;2022-10-26T11:46:12;6.45;;;2.05;;
61015;SDS011;46902;52.920;6.536;2022-10-26T11:48:43;4.07;;;2.20;;
61015;SDS011;46902;52.920;6.536;2022-10-26T11:51:14;13.98;;;2.45;;
61015;SDS011;46902;52.920;6.536;2022-10-26T11:53:52;9.40;;;2.72;;
61015;SDS011;46902;52.920;6.536;2022-10-26T11:56:29;12.40;;;2.50;;
61015;SDS011;46902;52.920;6.536;2022-10-26T11:58:57;7.93;;;2.38;;
61015;SDS011;46902;52.920;6.536;2022-10-26T12:01:23;5.43;;;2.03;;
61015;SDS011;46902;52.920;6.536;2022-10-26T12:03:51;6.22;;;2.03;;
61015;SDS011;46902;52.920;6.536;2022-10-26T12:06:19;8.02;;;2.28;;
61015;SDS011;46902;52.920;6.536;2022-10-26T12:08:50;8.00;;;2.80;;
61015;SDS011;46902;52.920;6.536;2022-10-26T12:11:33;5.32;;;2.05;;
61015;SDS011;46902;52.920;6.536;2022-10-26T12:14:08;5.13;;;2.08;;
61015;SDS011;46902;52.920;6.536;2022-10-26T12:17:08;6.33;;;2.10;;
61015;SDS011;46902;52.920;6.536;2022-10-26T12:19:43;5.65;;;2.10;;
61015;SDS011;46902;52.920;6.536;2022-10-26T12:22:14;7.07;;;1.90;;
61015;SDS011;46902;52.920;6.536;2022-10-26T12:24:42;5.68;;;2.03;;
61015;SDS011;46902;52.920;6.536;2022-10-26T12:27:51;4.93;;;1.90;;
61015;SDS011;46902;52.920;6.536;2022-10-26T12:32:50;8.68;;;2.25;;
61015;SDS011;46902;52.920;6.536;2022-10-26T12:35:36;5.15;;;2.05;;
61015;SDS011;46902;52.920;6.536;2022-10-26T12:40:48;6.47;;;2.60;;
61015;SDS011;46902;52.920;6.536;2022-10-26T12:43:32;5.93;;;2.78;;
61015;SDS011;46902;52.920;6.536;2022-10-26T12:48:41;7.55;;;2.45;;
61015;SDS011;46902;52.920;6.536;2022-10-26T12:51:39;14.48;;;3.05;;
61015;SDS011;46902;52.920;6.536;2022-10-26T12:56:30;6.95;;;2.55;;
61015;SDS011;46902;52.920;6.536;2022-10-26T12:59:59;13.98;;;2.70;;
61015;SDS011;46902;52.920;6.536;2022-10-26T13:08:00;10.82;;;2.80;;
61015;SDS011;46902;52.920;6.536;2022-10-26T13:10:28;9.30;;;2.75;;
61015;SDS011;46902;52.920;6.536;2022-10-26T13:12:55;9.20;;;3.00;;
61015;SDS011;46902;52.920;6.536;2022-10-26T13:15:29;9.40;;;3.40;;
61015;SDS011;46902;52.920;6.536;2022-10-26T13:23:30;11.00;;;3.30;;
61015;SDS011;46902;52.920;6.536;2022-10-26T13:26:11;11.25;;;3.80;;
61015;SDS011;46902;52.920;6.536;2022-10-26T13:28:43;6.97;;;3.00;;
61015;SDS011;46902;52.920;6.536;2022-10-26T13:31:13;10.30;;;3.10;;
61015;SDS011;46902;52.920;6.536;2022-10-26T13:33:47;7.38;;;3.38;;
61015;SDS011;46902;52.920;6.536;2022-10-26T13:36:32;9.55;;;3.63;;
61015;SDS011;46902;52.920;6.536;2022-10-26T13:39:10;9.30;;;3.13;;
61015;SDS011;46902;52.920;6.536;2022-10-26T13:42:00;8.65;;;3.45;;
61015;SDS011;46902;52.920;6.536;2022-10-26T13:44:28;8.90;;;3.50;;
61015;SDS011;46902;52.920;6.536;2022-10-26T13:47:21;8.40;;;3.45;;
61015;SDS011;46902;52.920;6.536;2022-10-26T13:49:51;8.93;;;3.20;;
61015;SDS011;46902;52.920;6.536;2022-10-26T13:52:37;8.32;;;3.30;;
61015;SDS011;46902;52.920;6.536;2022-10-26T13:55:08;12.40;;;4.20;;
61015;SDS011;46902;52.920;6.536;2022-10-26T13:57:56;9.23;;;3.38;;
61015;SDS011;46902;52.920;6.536;2022-10-26T14:03:36;10.00;;;3.00;;
61015;SDS011;46902;52.920;6.536;2022-10-26T14:08:58;8.60;;;3.17;;
61015;SDS011;46902;52.920;6.536;2022-10-26T14:11:30;8.43;;;3.17;;
61015;SDS011;46902;52.920;6.536;2022-10-26T14:14:01;10.63;;;2.60;;
61015;SDS011;46902;52.920;6.536;2022-10-26T14:16:28;8.65;;;2.50;;
61015;SDS011;46902;52.920;6.536;2022-10-26T14:18:55;8.25;;;2.70;;
61015;SDS011;46902;52.920;6.536;2022-10-26T14:21:21;8.35;;;3.38;;
61015;SDS011;46902;52.920;6.536;2022-10-26T14:23:47;11.07;;;3.05;;
61015;SDS011;46902;52.920;6.536;2022-10-26T14:26:28;11.27;;;3.30;;
61015;SDS011;46902;52.920;6.536;2022-10-26T14:29:02;9.23;;;2.90;;
61015;SDS011;46902;52.920;6.536;2022-10-26T14:31:29;9.38;;;2.97;;
61015;SDS011;46902;52.920;6.536;2022-10-26T14:33:59;6.50;;;2.67;;
61015;SDS011;46902;52.920;6.536;2022-10-26T14:37:13;10.13;;;3.10;;
61015;SDS011;46902;52.920;6.536;2022-10-26T14:39:23;9.32;;;2.88;;
61015;SDS011;46902;52.920;6.536;2022-10-26T14:44:52;8.35;;;2.88;;
61015;SDS011;46902;52.920;6.536;2022-10-26T14:47:24;13.45;;;3.42;;
61015;SDS011;46902;52.920;6.536;2022-10-26T14:49:58;7.10;;;2.80;;
61015;SDS011;46902;52.920;6.536;2022-10-26T14:52:29;11.00;;;3.50;;
61015;SDS011;46902;52.920;6.536;2022-10-26T14:57:45;8.95;;;3.30;;
61015;SDS011;46902;52.920;6.536;2022-10-26T15:00:20;9.88;;;3.08;;
61015;SDS011;46902;52.920;6.536;2022-10-26T15:02:48;7.05;;;3.00;;
61015;SDS011;46902;52.920;6.536;2022-10-26T15:05:23;8.80;;;3.22;;
61015;SDS011;46902;52.920;6.536;2022-10-26T15:07:54;8.57;;;3.10;;
61015;SDS011;46902;52.920;6.536;2022-10-26T15:13:17;11.48;;;3.30;;
61015;SDS011;46902;52.920;6.536;2022-10-26T15:15:53;6.27;;;2.80;;
61015;SDS011;46902;52.920;6.536;2022-10-26T15:18:28;9.95;;;3.30;;
61015;SDS011;46902;52.920;6.536;2022-10-26T15:20:57;16.27;;;3.72;;
61015;SDS011;46902;52.920;6.536;2022-10-26T15:23:23;10.75;;;3.72;;
61015;SDS011;46902;52.920;6.536;2022-10-26T15:25:52;10.05;;;3.33;;
61015;SDS011;46902;52.920;6.536;2022-10-26T15:28:20;7.93;;;2.95;;
61015;SDS011;46902;52.920;6.536;2022-10-26T15:33:39;12.93;;;3.10;;
61015;SDS011;46902;52.920;6.536;2022-10-26T15:38:32;12.73;;;3.72;;
61015;SDS011;46902;52.920;6.536;2022-10-26T15:41:00;13.35;;;3.92;;
61015;SDS011;46902;52.920;6.536;2022-10-26T15:43:27;13.60;;;3.25;;
61015;SDS011;46902;52.920;6.536;2022-10-26T15:45:53;7.28;;;3.20;;
61015;SDS011;46902;52.920;6.536;2022-10-26T15:50:45;8.20;;;3.45;;
61015;SDS011;46902;52.920;6.536;2022-10-26T15:53:16;6.75;;;3.13;;
61015;SDS011;46902;52.920;6.536;2022-10-26T15:55:44;9.32;;;3.65;;
61015;SDS011;46902;52.920;6.536;2022-10-26T15:58:10;9.18;;;2.85;;
61015;SDS011;46902;52.920;6.536;2022-10-26T16:00:36;8.05;;;2.45;;
61015;SDS011;46902;52.920;6.536;2022-10-26T16:03:02;7.22;;;2.88;;
61015;SDS011;46902;52.920;6.536;2022-10-26T16:05:28;7.90;;;3.22;;
61015;SDS011;46902;52.920;6.536;2022-10-26T16:07:53;6.75;;;2.85;;
61015;SDS011;46902;52.920;6.536;2022-10-26T16:10:20;7.15;;;3.53;;
61015;SDS011;46902;52.920;6.536;2022-10-26T16:12:48;7.40;;;2.95;;
61015;SDS011;46902;52.920;6.536;2022-10-26T16:15:18;7.90;;;3.22;;
61015;SDS011;46902;52.920;6.536;2022-10-26T16:17:46;10.93;;;3.47;;
61015;SDS011;46902;52.920;6.536;2022-10-26T16:20:13;8.18;;;3.05;;
61015;SDS011;46902;52.920;6.536;2022-10-26T16:22:47;5.53;;;2.97;;
61015;SDS011;46902;52.920;6.536;2022-10-26T16:25:17;8.75;;;3.50;;
61015;SDS011;46902;52.920;6.536;2022-10-26T16:27:44;9.63;;;3.03;;
61015;SDS011;46902;52.920;6.536;2022-10-26T16:30:11;9.43;;;3.10;;
61015;SDS011;46902;52.920;6.536;2022-10-26T16:32:38;6.53;;;2.90;;
61015;SDS011;46902;52.920;6.536;2022-10-26T16:35:04;12.20;;;2.90;;
61015;SDS011;46902;52.920;6.536;2022-10-26T16:37:30;9.65;;;2.90;;
61015;SDS011;46902;52.920;6.536;2022-10-26T16:39:56;6.68;;;3.55;;
61015;SDS011;46902;52.920;6.536;2022-10-26T16:42:22;8.98;;;3.30;;
61015;SDS011;46902;52.920;6.536;2022-10-26T16:44:48;7.90;;;2.88;;
61015;SDS011;46902;52.920;6.536;2022-10-26T16:47:13;7.60;;;2.53;;
61015;SDS011;46902;52.920;6.536;2022-10-26T16:49:39;9.70;;;2.63;;
61015;SDS011;46902;52.920;6.536;2022-10-26T16:52:07;3.92;;;2.10;;
61015;SDS011;46902;52.920;6.536;2022-10-26T16:54:33;7.07;;;2.75;;
61015;SDS011;46902;52.920;6.536;2022-10-26T16:56:59;6.55;;;2.85;;
61015;SDS011;46902;52.920;6.536;2022-10-26T16:59:24;8.40;;;3.17;;
61015;SDS011;46902;52.920;6.536;2022-10-26T17:01:50;9.18;;;3.20;;
61015;SDS011;46902;52.920;6.536;2022-10-26T17:04:15;8.98;;;3.20;;
61015;SDS011;46902;52.920;6.536;2022-10-26T17:06:41;8.93;;;3.10;;
61015;SDS011;46902;52.920;6.536;2022-10-26T17:09:06;7.85;;;3.30;;
61015;SDS011;46902;52.920;6.536;2022-10-26T17:11:32;7.85;;;3.05;;